Acton, CA

4:11 AM PDT on July 25, 2016 (GMT -0700)
Star Point Ranch, Mary Road | | Change Station

Elev 3320 ft 34.50 °N, 118.16 °W | Updated 40 seconds ago

Haze
Haze
67.6 °F
Feels Like 67.6 °F
N
0.0
Wind Variable Wind from WSW
Gusts 0.0 mph

Today
High -- | Low -- °F
--% Chance of Precip.
Yesterday
High -- | Low -- °F
Precip. -- in
Pressure 29.88 in
Visibility 5.0 miles
Clouds Clear
Dew Point 49 °F
Humidity 51%
Rainfall 0.00 in
Snow Depth Not available.
5:58 AM 7:59 PM
Waning Gibbous, 67% visible
METAR KPMD 251053Z AUTO 19008KT 5SM HZ CLR 23/05 A2997 RMK AO2 SLP117 T02330050 $
Pressure 29.88 in
Visibility 5.0 miles
Clouds Clear
Dew Point 49 °F
Humidity 51%
Rainfall 0.00 in
Snow Depth Not available.
5:58 AM 7:59 PM
Waning Gibbous, 67% visible
METAR KPMD 251053Z AUTO 19008KT 5SM HZ CLR 23/05 A2997 RMK AO2 SLP117 T02330050 $

10-Day Weather Forecast

Almanac

Astronomy

Jul. 25, 2016 Rise Set
Actual Time
Civil Twilight
Nautical Twilight
Astronomical Twilight
Moon
Length of Visible Light
Length of Day
Tomorrow will be .
, % of the Moon is Illuminated

Today's Extremes

State Highs State Lows

Community

WunderPhotos

Upload Photos

1,927,291 photos uploaded!

WunderBlog® & News

Nearby

Air Quality

  Air Quality AQ Index Pollutant
Not available.

Snow Depth

Station Depth Elevation

Earthquake Activity

City Distance Mag. Time & Date
Minimum magnitude displayed is 2.5.

Coastal Water Temperatures

Place Temperature

Stations

Nearby Weather Stations

Station Location Temp. Windchill Dew Point Humidity Wind Precip. Elev Updated Type
                   

Watches & Warnings

There are currently no watches in effect.